Time;durP1;ratioP1;P1;durP2;ratioP2;P2;SDS_P1;SDS_P2;PMS_P1;PMS_P2;Temp;Humidity;BMP_temperature;BMP_pressure;BME280_temperature;BME280_humidity;BME280_pressure;Samples;Min_cycle;Max_cycle;Signal;HPM_P1;HPM_P2
2021/06/09 00:00:41;;;;;;;11.20;8.93;;;;;;;15.88;87.72;100040.06;1827036;76;21026;-77
2021/06/09 00:03:08;;;;;;;11.20;9.77;;;;;;;15.88;87.78;100042.75;1824293;76;21707;-76
2021/06/09 00:05:35;;;;;;;10.60;9.20;;;;;;;15.85;87.96;100042.80;1808251;77;21745;-78
2021/06/09 00:08:02;;;;;;;11.83;9.77;;;;;;;15.83;88.17;100040.20;1812162;78;21756;-76
2021/06/09 00:10:29;;;;;;;11.83;10.40;;;;;;;15.79;88.21;100039.98;1817346;76;22235;-78
2021/06/09 00:12:56;;;;;;;12.97;10.73;;;;;;;15.75;88.24;100047.08;1794267;78;22245;-75
2021/06/09 00:15:23;;;;;;;12.77;10.63;;;;;;;15.73;88.33;100053.86;1791788;78;21716;-75
2021/06/09 00:17:49;;;;;;;14.50;10.53;;;;;;;15.69;88.39;100043.72;1801727;78;22273;-76
2021/06/09 00:20:20;;;;;;;12.33;11.13;;;;;;;15.63;88.72;100039.52;1822881;76;21674;-76
2021/06/09 00:22:47;;;;;;;12.43;10.90;;;;;;;15.63;88.72;100039.52;1823400;76;21588;-77
2021/06/09 00:25:18;;;;;;;12.30;10.87;;;;;;;15.60;88.65;100042.81;1821771;78;21724;-75
2021/06/09 00:27:44;;;;;;;15.73;11.53;;;;;;;15.55;88.77;100030.01;1825879;76;21062;-76
2021/06/09 00:30:14;;;;;;;13.07;10.87;;;;;;;15.55;88.77;100030.01;1814092;78;21057;-76
2021/06/09 00:32:40;;;;;;;12.73;11.10;;;;;;;15.52;88.86;100029.27;1789768;78;22594;-76
2021/06/09 00:35:09;;;;;;;16.37;11.40;;;;;;;15.49;89.01;100030.66;1825237;76;21677;-78
2021/06/09 00:37:35;;;;;;;12.10;10.50;;;;;;;15.45;89.15;100033.16;1829739;76;21795;-77
2021/06/09 00:40:05;;;;;;;12.23;10.80;;;;;;;15.43;89.26;100029.17;1831205;76;21701;-77
2021/06/09 00:42:31;;;;;;;14.67;11.60;;;;;;;15.42;89.31;100028.38;1848941;76;21693;-77
2021/06/09 00:44:58;;;;;;;12.73;11.10;;;;;;;15.41;89.32;100023.31;1789353;78;21726;-76
2021/06/09 00:47:25;;;;;;;13.03;11.30;;;;;;;15.42;89.36;100021.65;1823656;76;22184;-75
2021/06/09 00:49:52;;;;;;;12.80;11.40;;;;;;;15.42;89.34;100023.55;1827139;76;21708;-76
2021/06/09 00:52:28;;;;;;;13.20;11.20;;;;;;;15.41;89.30;100022.76;1823438;76;21732;-75
2021/06/09 00:54:55;;;;;;;13.13;10.83;;;;;;;15.36;89.31;100028.23;1784232;78;21727;-75
2021/06/09 00:57:23;;;;;;;12.13;10.83;;;;;;;15.33;89.30;100028.83;1794394;78;21786;-75
2021/06/09 00:59:49;;;;;;;12.37;11.07;;;;;;;15.31;89.29;100027.56;1787173;78;22136;-75
2021/06/09 01:02:16;;;;;;;12.60;11.30;;;;;;;15.31;89.29;100022.19;1789547;78;21764;-75
2021/06/09 01:04:42;;;;;;;15.10;12.33;;;;;;;15.29;89.25;100026.51;1797543;78;21693;-75
2021/06/09 01:07:12;;;;;;;13.13;11.77;;;;;;;15.29;89.24;100021.67;1795434;78;22265;-75
2021/06/09 01:09:38;;;;;;;14.80;12.93;;;;;;;15.28;89.28;100021.44;1823858;76;22159;-75
2021/06/09 01:12:06;;;;;;;18.50;12.70;;;;;;;15.27;89.30;100023.34;1763382;78;21717;-75
2021/06/09 01:14:33;;;;;;;14.80;12.43;;;;;;;15.28;89.33;100023.58;1824392;76;22317;-74
2021/06/09 01:17:01;;;;;;;14.43;12.67;;;;;;;15.28;89.38;100025.47;1820310;76;21716;-75
2021/06/09 01:19:27;;;;;;;14.60;12.93;;;;;;;15.26;89.42;100028.45;1818070;76;21767;-74
2021/06/09 01:21:54;;;;;;;15.17;12.27;;;;;;;15.24;89.50;100021.25;1829337;76;21676;-75
2021/06/09 01:24:21;;;;;;;14.37;12.90;;;;;;;15.21;89.58;100024.53;1819064;76;22316;-74
2021/06/09 01:26:48;;;;;;;14.73;12.43;;;;;;;15.16;89.60;100024.08;1828086;77;21740;-74
2021/06/09 01:29:17;;;;;;;14.40;12.80;;;;;;;15.12;89.70;100024.44;1830829;76;21856;-75
2021/06/09 01:31:44;;;;;;;16.30;12.80;;;;;;;15.13;89.77;100018.50;1828903;76;21704;-75
2021/06/09 01:34:11;;;;;;;18.57;13.07;;;;;;;15.14;89.74;100021.46;1797934;78;21738;-75
2021/06/09 01:36:39;;;;;;;15.97;13.53;;;;;;;15.16;89.71;100020.59;1821078;76;21714;-75
2021/06/09 01:39:18;;;;;;;14.90;13.27;;;;;;;15.17;89.80;100025.69;1814958;76;21674;-74
2021/06/09 01:41:48;;;;;;;16.23;14.00;;;;;;;15.18;89.80;100028.62;1814676;76;21694;-76
2021/06/09 01:44:15;;;;;;;14.60;13.10;;;;;;;15.20;89.86;100034.50;1825750;76;22278;-76
2021/06/09 01:46:42;;;;;;;15.50;12.97;;;;;;;15.21;89.88;100033.40;1822551;76;21772;-75
2021/06/09 01:49:11;;;;;;;14.93;12.53;;;;;;;15.22;89.94;100033.64;1820132;76;21724;-75
2021/06/09 01:51:38;;;;;;;14.27;12.57;;;;;;;15.24;90.04;100036.05;1831376;77;22258;-75
2021/06/09 01:54:07;;;;;;;14.33;12.67;;;;;;;15.22;90.02;100032.30;1827911;76;22547;-74
2021/06/09 01:56:34;;;;;;;14.93;12.57;;;;;;;15.16;90.03;100033.48;1829225;76;21768;-74
2021/06/09 01:59:16;;;;;;;14.60;13.10;;;;;;;15.11;90.15;100034.95;1825633;76;22215;-74
2021/06/09 02:01:43;;;;;;;14.10;12.50;;;;;;;15.11;90.55;100040.33;1780660;79;21724;-74
2021/06/09 02:04:12;;;;;;;13.77;12.30;;;;;;;15.16;90.27;100037.52;1829543;76;21755;-74
2021/06/09 02:06:40;;;;;;;14.10;12.60;;;;;;;15.19;90.25;100037.48;1821043;76;21707;-74
2021/06/09 02:09:08;;;;;;;16.60;13.10;;;;;;;15.21;90.21;100046.85;1798859;78;22985;-74
2021/06/09 02:11:41;;;;;;;14.00;12.23;;;;;;;15.23;90.19;100050.05;1822863;76;21737;-75
2021/06/09 02:14:08;;;;;;;13.63;12.23;;;;;;;15.26;90.14;100049.97;1814146;78;22246;-75
2021/06/09 02:16:36;;;;;;;14.53;12.10;;;;;;;15.29;90.09;100053.97;1823529;76;21720;-76
2021/06/09 02:19:06;;;;;;;13.40;11.33;;;;;;;15.28;90.09;100053.73;1824988;78;21687;-76
2021/06/09 02:21:35;;;;;;;12.73;11.23;;;;;;;15.30;90.08;100055.55;1827160;76;21728;-74
2021/06/09 02:24:02;;;;;;;12.07;10.77;;;;;;;15.32;90.04;100054.71;1829316;76;22146;-75
2021/06/09 02:26:29;;;;;;;12.33;10.70;;;;;;;15.35;90.02;100047.39;1826904;76;22148;-74
2021/06/09 02:28:57;;;;;;;12.90;11.17;;;;;;;15.36;89.96;100049.77;1824250;76;21764;-75
2021/06/09 02:31:27;;;;;;;11.93;10.70;;;;;;;15.38;89.92;100050.27;1833976;77;21747;-75
2021/06/09 02:33:55;;;;;;;13.57;12.17;;;;;;;15.39;89.88;100051.85;1836801;76;21743;-75
2021/06/09 02:36:21;;;;;;;13.80;12.20;;;;;;;15.42;89.89;100049.12;1790402;78;21684;-75
2021/06/09 02:38:51;;;;;;;15.70;12.07;;;;;;;15.43;89.86;100046.66;1827058;76;22253;-74
2021/06/09 02:41:18;;;;;;;13.17;11.83;;;;;;;15.44;89.84;100049.63;1818882;78;21720;-75
2021/06/09 02:43:46;;;;;;;15.83;12.50;;;;;;;15.48;89.79;100045.22;1791851;78;21771;-75
2021/06/09 02:46:17;;;;;;;15.43;12.73;;;;;;;15.50;89.78;100047.08;1791988;79;21735;-75
2021/06/09 02:48:47;;;;;;;13.83;11.90;;;;;;;15.56;89.74;100047.19;1829273;76;21767;-75
2021/06/09 02:51:16;;;;;;;13.27;11.80;;;;;;;15.61;89.61;100043.05;1848016;77;21666;-74
2021/06/09 02:53:51;;;;;;;12.90;11.50;;;;;;;15.63;89.50;100051.63;1824957;76;22926;-76
2021/06/09 02:56:27;;;;;;;12.23;10.93;;;;;;;15.68;89.46;100046.15;1816109;76;22110;-75
2021/06/09 02:59:18;;;;;;;11.93;10.63;;;;;;;15.72;89.39;100043.64;1814108;78;21677;-74
2021/06/09 03:02:08;;;;;;;12.35;11.05;;;;;;;15.81;89.36;100047.21;1821205;76;21729;-74
2021/06/09 03:04:54;;;;;;;11.20;10.10;;;;;;;15.87;89.23;100049.25;1789551;78;21138;-74
2021/06/09 03:07:43;;;;;;;10.27;9.27;;;;;;;15.94;89.08;100043.67;1809818;78;21050;-74
2021/06/09 03:10:15;;;;;;;10.30;9.30;;;;;;;16.01;88.87;100043.25;1828051;76;21065;-74
2021/06/09 03:12:51;;;;;;;10.07;9.07;;;;;;;16.11;88.57;100050.30;1792093;78;22233;-74
2021/06/09 03:15:26;;;;;;;11.07;9.87;;;;;;;16.16;88.31;100046.14;1800655;78;21006;-75
2021/06/09 03:18:05;;;;;;;11.90;9.27;;;;;;;16.25;88.04;100048.88;1789705;78;21707;-74
2021/06/09 03:21:01;;;;;;;9.70;8.70;;;;;;;16.34;87.83;100049.73;1794858;78;21041;-74
2021/06/09 03:23:57;;;;;;;9.60;8.47;;;;;;;16.43;87.44;100055.20;1780860;78;21426;-75
2021/06/09 03:26:50;;;;;;;11.07;9.90;;;;;;;16.49;86.97;100054.75;1830563;76;21026;-74
2021/06/09 03:29:40;;;;;;;10.20;9.20;;;;;;;16.54;86.49;100050.56;1822816;76;21038;-75
2021/06/09 03:32:20;;;;;;;9.43;8.53;;;;;;;16.62;86.20;100048.48;1827290;76;21632;-75
2021/06/09 03:34:51;;;;;;;10.67;8.17;;;;;;;16.71;85.86;100048.51;1823815;76;21011;-74
2021/06/09 03:37:19;;;;;;;10.80;8.58;;;;;;;16.80;85.55;100051.28;1814834;76;21027;-75
2021/06/09 03:39:46;;;;;;;9.67;8.37;;;;;;;16.87;85.19;100051.63;1791248;78;21142;-75
2021/06/09 03:42:18;;;;;;;8.90;8.00;;;;;;;16.96;84.88;100056.52;1786786;78;21628;-75
2021/06/09 03:44:52;;;;;;;8.47;7.57;;;;;;;17.04;84.57;100054.38;1818597;76;21149;-75
2021/06/09 03:47:19;;;;;;;8.43;7.20;;;;;;;17.10;84.07;100057.19;1825733;76;21563;-75
2021/06/09 03:49:47;;;;;;;8.67;7.33;;;;;;;17.16;83.42;100059.20;1755710;79;21090;-75
2021/06/09 03:52:14;;;;;;;10.03;8.30;;;;;;;17.23;83.02;100067.63;1818144;77;21684;-76
2021/06/09 03:54:43;;;;;;;9.40;8.50;;;;;;;17.28;82.56;100064.80;1790110;78;21063;-76
2021/06/09 03:57:10;;;;;;;10.00;9.00;;;;;;;17.34;82.30;100076.22;1791888;78;21128;-76
2021/06/09 03:59:37;;;;;;;9.87;8.97;;;;;;;17.38;81.80;100075.07;1794875;78;21138;-76
2021/06/09 04:02:06;;;;;;;10.27;9.37;;;;;;;17.41;81.66;100068.48;1739769;78;21105;-76
2021/06/09 04:04:33;;;;;;;9.47;8.37;;;;;;;17.48;81.35;100064.77;1829561;76;21007;-77
2021/06/09 04:07:01;;;;;;;9.60;8.60;;;;;;;17.52;81.12;100063.58;1828663;76;21600;-76
2021/06/09 04:09:27;;;;;;;11.47;8.67;;;;;;;17.58;81.01;100068.51;1819787;76;21158;-77
2021/06/09 04:11:58;;;;;;;9.23;7.73;;;;;;;17.62;80.61;100068.67;1796086;76;21591;-76
2021/06/09 04:14:42;;;;;;;8.08;7.25;;;;;;;17.68;80.53;100075.52;1795452;78;21081;-74
2021/06/09 04:17:09;;;;;;;8.90;8.00;;;;;;;17.73;80.25;100078.61;1828746;76;20990;-76
2021/06/09 04:19:42;;;;;;;9.70;7.97;;;;;;;17.78;80.07;100075.80;1819362;76;21049;-76
2021/06/09 04:22:09;;;;;;;8.27;7.33;;;;;;;17.83;79.90;100076.97;1790560;78;22048;-76
2021/06/09 04:24:38;;;;;;;8.20;6.97;;;;;;;17.89;79.53;100072.22;1801095;78;21651;-76
2021/06/09 04:27:14;;;;;;;7.93;7.13;;;;;;;17.93;79.25;100076.69;1787900;78;21024;-77
2021/06/09 04:29:43;;;;;;;8.57;7.37;;;;;;;17.98;79.09;100074.37;1814686;76;21161;-76
2021/06/09 04:32:10;;;;;;;7.70;6.87;;;;;;;18.05;78.93;100070.06;1823482;77;21033;-76
2021/06/09 04:34:47;;;;;;;8.57;7.10;;;;;;;18.12;78.52;100067.44;1791707;78;21133;-77
2021/06/09 04:37:16;;;;;;;8.53;7.63;;;;;;;18.16;78.23;100074.58;1820049;78;21073;-78
2021/06/09 04:39:43;;;;;;;10.47;8.00;;;;;;;18.25;78.12;100073.23;1794713;78;21544;-77
2021/06/09 04:42:10;;;;;;;7.13;6.40;;;;;;;18.31;77.93;100070.61;1763546;78;21619;-77
2021/06/09 04:44:39;;;;;;;8.77;7.60;;;;;;;18.36;77.80;100069.10;1814061;76;21033;-76
2021/06/09 04:47:07;;;;;;;8.90;7.03;;;;;;;18.41;77.54;100067.56;1818574;76;21084;-76
2021/06/09 04:49:39;;;;;;;8.20;7.20;;;;;;;18.50;77.46;100069.70;1799876;78;21041;-76
2021/06/09 04:52:06;;;;;;;7.30;6.30;;;;;;;18.58;77.41;100071.34;1795141;78;21038;-76
2021/06/09 04:54:33;;;;;;;9.17;6.90;;;;;;;18.65;77.26;100068.38;1822222;77;21075;-77
2021/06/09 04:57:00;;;;;;;7.57;6.80;;;;;;;18.72;76.51;100073.31;1813913;77;21060;-77
2021/06/09 04:59:27;;;;;;;7.70;6.90;;;;;;;18.77;76.21;100071.80;1824408;77;21111;-76
2021/06/09 05:01:53;;;;;;;9.60;6.97;;;;;;;18.82;75.49;100072.99;1818156;77;21017;-76
2021/06/09 05:04:20;;;;;;;7.00;6.30;;;;;;;18.88;75.11;100070.31;1825224;77;21012;-76
2021/06/09 05:06:47;;;;;;;8.33;6.70;;;;;;;18.94;74.75;100073.08;1827290;77;21089;-77
2021/06/09 05:09:13;;;;;;;7.50;6.70;;;;;;;19.02;74.28;100074.72;1827348;77;21046;-78
2021/06/09 05:11:52;;;;;;;6.57;5.97;;;;;;;19.08;73.59;100070.16;1814727;77;21042;-78
2021/06/09 05:14:45;;;;;;;6.83;6.10;;;;;;;19.12;73.54;100069.76;1819210;76;21571;-78
2021/06/09 05:17:13;;;;;;;7.93;7.13;;;;;;;19.18;73.63;100075.23;1824657;76;21023;-77
2021/06/09 05:19:40;;;;;;;9.43;6.47;;;;;;;19.27;73.62;100072.45;1797455;78;21077;-77
2021/06/09 05:22:24;;;;;;;7.20;6.30;;;;;;;19.36;73.35;100070.50;1765350;79;21077;-77
2021/06/09 05:24:50;;;;;;;8.63;7.27;;;;;;;19.48;73.03;100075.22;1798463;79;21063;-77
2021/06/09 05:27:21;;;;;;;8.20;7.40;;;;;;;19.56;72.58;100075.71;1783898;79;21063;-76
2021/06/09 05:29:48;;;;;;;11.35;7.55;;;;;;;19.62;72.20;100079.82;1826495;76;21525;-77
2021/06/09 05:32:16;;;;;;;8.37;7.43;;;;;;;19.66;72.11;100083.48;1823142;77;21070;-76
2021/06/09 05:34:43;;;;;;;8.53;6.83;;;;;;;19.68;71.95;100077.75;1803155;78;21465;-76
2021/06/09 05:37:10;;;;;;;7.80;7.00;;;;;;;19.70;71.86;100074.13;1780548;79;21109;-76
2021/06/09 05:39:38;;;;;;;7.57;6.40;;;;;;;19.71;71.51;100073.56;1841325;77;21016;-76
2021/06/09 05:42:10;;;;;;;8.90;7.10;;;;;;;19.73;71.56;100064.55;1820319;77;21057;-77
2021/06/09 05:44:39;;;;;;;8.70;6.97;;;;;;;19.79;71.60;100069.45;1826516;76;21006;-77
2021/06/09 05:47:05;;;;;;;8.53;7.70;;;;;;;19.86;71.12;100067.56;1815326;78;21069;-77
2021/06/09 05:49:32;;;;;;;9.23;7.90;;;;;;;19.94;70.85;100079.45;1797791;78;21279;-77
2021/06/09 05:51:59;;;;;;;8.30;6.87;;;;;;;20.00;70.42;100080.84;1814237;76;21052;-76
2021/06/09 05:54:34;;;;;;;10.33;7.23;;;;;;;20.06;69.92;100078.16;1826498;77;21572;-77
2021/06/09 05:57:04;;;;;;;7.50;6.60;;;;;;;20.13;69.71;100073.78;1823667;76;21144;-77
2021/06/09 05:59:30;;;;;;;9.27;8.00;;;;;;;20.26;69.30;100077.91;1803183;78;21623;-76
2021/06/09 06:01:57;;;;;;;11.47;7.93;;;;;;;20.38;69.04;100082.81;1819429;77;21630;-76
2021/06/09 06:04:25;;;;;;;9.33;6.80;;;;;;;20.45;68.47;100080.91;1817668;76;21023;-72
2021/06/09 06:06:52;;;;;;;8.83;6.80;;;;;;;20.51;67.96;100075.53;1806923;78;22169;-71
2021/06/09 06:09:19;;;;;;;11.70;6.57;;;;;;;20.58;67.83;100078.48;1818764;76;21114;-73
2021/06/09 06:11:47;;;;;;;10.13;6.77;;;;;;;20.69;67.33;100078.84;1824126;76;21017;-72
2021/06/09 06:14:14;;;;;;;10.60;7.57;;;;;;;20.76;66.79;100072.31;1820556;76;21502;-72
2021/06/09 06:16:55;;;;;;;11.67;6.70;;;;;;;20.84;66.61;100075.48;1782518;78;20970;-70
2021/06/09 06:19:24;;;;;;;11.90;6.60;;;;;;;20.96;65.68;100073.36;1820790;76;21018;-71
2021/06/09 06:21:51;;;;;;;9.13;5.90;;;;;;;21.04;64.54;100069.73;1795737;78;21300;-72
2021/06/09 06:24:18;;;;;;;9.63;5.90;;;;;;;21.12;64.07;100066.66;1816525;78;21006;-72
2021/06/09 06:26:49;;;;;;;12.13;5.23;;;;;;;21.21;63.77;100077.42;1825839;76;21828;-76
2021/06/09 06:29:16;;;;;;;;;;;;;;;21.30;62.07;100076.17;1819583;78;21046;-71
2021/06/09 06:31:43;;;;;;;8.73;5.53;;;;;;;21.36;61.46;100075.98;1821075;76;20145;-72
2021/06/09 06:34:10;;;;;;;12.63;7.50;;;;;;;21.40;61.72;100076.88;1820602;76;21174;-72
2021/06/09 06:36:37;;;;;;;13.97;6.83;;;;;;;21.42;61.52;100075.95;1774094;78;21190;-73
2021/06/09 06:39:07;;;;;;;14.13;6.40;;;;;;;21.43;61.11;100074.27;1826893;77;21176;-72
2021/06/09 06:41:36;;;;;;;12.07;7.07;;;;;;;21.47;61.42;100079.23;1816876;76;21084;-72
2021/06/09 06:44:03;;;;;;;15.97;6.70;;;;;;;21.52;61.51;100071.44;1796470;78;21074;-71
2021/06/09 06:46:30;;;;;;;11.27;6.00;;;;;;;21.56;61.55;100083.20;1820003;77;21018;-70
2021/06/09 06:48:57;;;;;;;13.73;6.47;;;;;;;21.61;60.65;100080.80;1789170;80;21470;-72
2021/06/09 06:51:24;;;;;;;16.37;6.40;;;;;;;21.66;59.69;100075.94;1833063;76;21108;-71
2021/06/09 06:53:54;;;;;;;14.67;6.67;;;;;;;21.67;60.10;100073.43;1827140;77;21155;-71
2021/06/09 06:56:20;;;;;;;18.17;6.80;;;;;;;21.72;60.06;100075.14;1816230;77;21038;-72
2021/06/09 06:58:50;;;;;;;15.73;6.73;;;;;;;21.79;60.23;100076.70;1770017;79;21047;-71
2021/06/09 07:01:23;;;;;;;10.43;5.00;;;;;;;21.89;60.23;100078.15;1799645;77;21065;-71
2021/06/09 07:03:50;;;;;;;10.77;4.17;;;;;;;21.99;58.61;100073.58;1823178;76;21126;-72
2021/06/09 07:06:17;;;;;;;7.73;4.27;;;;;;;22.08;57.91;100075.59;1784385;78;21049;-71
2021/06/09 07:08:46;;;;;;;15.47;6.13;;;;;;;22.16;57.31;100081.47;1821182;76;21034;-71
2021/06/09 07:11:13;;;;;;;11.30;5.63;;;;;;;22.22;57.83;100073.28;1823189;76;21568;-72
2021/06/09 07:13:44;;;;;;;8.80;4.50;;;;;;;22.28;57.83;100079.81;1821846;76;21587;-71
2021/06/09 07:16:12;;;;;;;11.30;4.70;;;;;;;22.37;56.66;100081.82;1814349;76;21189;-71
2021/06/09 07:18:46;;;;;;;13.10;5.13;;;;;;;22.41;56.34;100076.71;1829173;76;21030;-72
2021/06/09 07:21:15;;;;;;;10.23;4.83;;;;;;;22.50;56.20;100068.38;1793119;79;20991;-73
2021/06/09 07:23:42;;;;;;;11.83;4.53;;;;;;;22.59;55.75;100069.58;1791591;78;21061;-74
2021/06/09 07:26:11;;;;;;;6.53;3.30;;;;;;;22.62;54.80;100061.50;1825959;76;21018;-73
2021/06/09 07:28:51;;;;;;;3.10;2.43;;;;;;;22.70;54.02;100070.08;1816144;78;21897;-74
2021/06/09 07:31:23;;;;;;;4.73;2.77;;;;;;;22.74;52.13;100073.44;1781870;79;21046;-72
2021/06/09 07:33:50;;;;;;;4.13;2.40;;;;;;;22.80;52.31;100071.46;1822090;77;21058;-72
2021/06/09 07:36:20;;;;;;;11.37;3.70;;;;;;;22.87;52.55;100069.52;1796622;78;21060;-73
2021/06/09 07:38:56;;;;;;;4.70;2.83;;;;;;;23.01;52.93;100071.25;1829455;76;21050;-73
2021/06/09 07:41:26;;;;;;;5.83;3.00;;;;;;;23.16;52.48;100069.09;1788600;79;21148;-77
2021/06/09 07:43:54;;;;;;;5.63;3.07;;;;;;;23.23;51.69;100071.73;1810360;76;21525;-77
2021/06/09 07:46:26;;;;;;;5.23;2.90;;;;;;;23.28;50.88;100074.20;1748852;79;21249;-77
2021/06/09 07:49:04;;;;;;;4.53;3.13;;;;;;;23.34;50.50;100072.79;1830451;76;21048;-77
2021/06/09 07:51:31;;;;;;;4.47;2.40;;;;;;;23.39;50.43;100073.86;1829019;77;21492;-76
2021/06/09 07:54:01;;;;;;;4.47;2.63;;;;;;;23.45;49.23;100073.81;1820790;76;21085;-76
2021/06/09 07:56:39;;;;;;;4.63;2.73;;;;;;;23.48;48.95;100077.19;1810358;78;21132;-77
2021/06/09 07:59:03;;;;;;;5.40;3.10;;;;;;;23.46;48.87;100071.32;1828757;77;21018;-76
2021/06/09 08:01:30;;;;;;;4.87;3.00;;;;;;;23.45;49.88;100075.75;1832581;77;21092;-77
2021/06/09 08:03:58;;;;;;;4.93;2.80;;;;;;;23.47;49.86;100066.08;1809381;78;21070;-76
2021/06/09 08:06:29;;;;;;;5.03;2.57;;;;;;;23.51;49.61;100065.58;1797868;78;21130;-76
2021/06/09 08:09:00;;;;;;;6.60;3.22;;;;;;;23.58;49.03;100060.27;1766375;79;21089;-76
2021/06/09 08:11:27;;;;;;;5.55;3.80;;;;;;;23.69;49.75;100063.28;1819476;78;21021;-78
2021/06/09 08:13:54;;;;;;;7.97;4.03;;;;;;;23.81;49.32;100071.30;1829871;77;21564;-76
2021/06/09 08:16:22;;;;;;;7.60;4.07;;;;;;;23.92;49.86;100071.52;1816214;76;21013;-77
2021/06/09 08:18:51;;;;;;;7.20;4.33;;;;;;;24.01;50.03;100071.31;1830075;76;21110;-78
2021/06/09 08:21:20;;;;;;;5.83;4.50;;;;;;;24.04;49.59;100068.66;1786947;79;21070;-78
2021/06/09 08:23:50;;;;;;;10.77;4.97;;;;;;;24.01;50.16;100071.31;1827937;77;21105;-76
2021/06/09 08:26:19;;;;;;;8.10;4.30;;;;;;;23.95;51.76;100070.02;1816113;76;21062;-78
2021/06/09 08:28:46;;;;;;;6.77;4.40;;;;;;;23.98;51.93;100072.81;1762341;79;21617;-77
2021/06/09 08:31:18;;;;;;;10.13;4.97;;;;;;;24.00;50.40;100075.98;1827043;77;21495;-76
2021/06/09 08:33:45;;;;;;;;;;;;;;;24.03;50.52;100076.62;1834204;78;21323;-77
2021/06/09 08:36:15;;;;;;;7.97;4.90;;;;;;;24.05;50.98;100073.53;1815143;77;20187;-77
2021/06/09 08:38:43;;;;;;;10.10;4.70;;;;;;;24.05;50.50;100072.98;1821133;78;21164;-76
2021/06/09 08:41:11;;;;;;;7.37;4.20;;;;;;;24.13;49.91;100077.20;1818287;77;21034;-72
2021/06/09 08:43:41;;;;;;;5.73;3.70;;;;;;;24.23;49.54;100073.31;1808169;77;21102;-73
2021/06/09 08:46:09;;;;;;;6.10;4.03;;;;;;;24.27;48.13;100069.28;1814008;77;21070;-72
2021/06/09 08:48:38;;;;;;;5.63;4.40;;;;;;;24.29;48.02;100076.55;1791346;78;21037;-75
2021/06/09 08:51:07;;;;;;;5.00;4.27;;;;;;;24.37;47.88;100073.37;1797007;78;21030;-76
2021/06/09 08:53:46;;;;;;;6.60;4.80;;;;;;;24.44;47.86;100077.62;1799993;78;21012;-76
2021/06/09 08:56:13;;;;;;;9.40;4.53;;;;;;;24.44;47.97;100077.04;1824313;76;21131;-75
2021/06/09 08:58:40;;;;;;;8.20;4.43;;;;;;;24.42;47.75;100071.17;1828289;76;21010;-75
2021/06/09 09:01:10;;;;;;;6.70;4.03;;;;;;;24.40;47.57;100074.02;1824372;77;21044;-75
2021/06/09 09:03:39;;;;;;;5.37;4.33;;;;;;;24.41;47.84;100072.30;1794348;78;22242;-74
2021/06/09 09:06:07;;;;;;;7.53;4.80;;;;;;;24.51;48.79;100071.73;1813358;78;21042;-75
2021/06/09 09:08:34;;;;;;;5.23;4.40;;;;;;;24.62;48.93;100069.77;1788687;78;21099;-74
2021/06/09 09:11:03;;;;;;;5.40;4.00;;;;;;;24.66;48.54;100065.92;1827462;76;21015;-74
2021/06/09 09:13:32;;;;;;;6.07;4.13;;;;;;;24.72;48.31;100060.38;1807059;78;20945;-75
2021/06/09 09:16:00;;;;;;;5.13;3.63;;;;;;;24.80;48.27;100058.55;1799827;78;21034;-75
2021/06/09 09:18:43;;;;;;;5.50;4.30;;;;;;;24.91;48.79;100066.36;1817825;76;20998;-74
2021/06/09 09:21:16;;;;;;;5.90;3.97;;;;;;;24.96;48.04;100057.84;1783741;78;21500;-75
2021/06/09 09:23:47;;;;;;;5.30;4.20;;;;;;;25.04;46.84;100058.72;1764121;79;21036;-75
2021/06/09 09:26:24;;;;;;;7.72;4.37;;;;;;;25.11;46.67;100055.34;1805075;78;21066;-74
2021/06/09 09:28:51;;;;;;;5.50;3.90;;;;;;;25.14;47.47;100049.14;1787644;78;21082;-75
2021/06/09 09:31:21;;;;;;;6.13;4.17;;;;;;;25.17;47.15;100049.22;1761826;79;21053;-75
2021/06/09 09:33:48;;;;;;;6.30;4.33;;;;;;;25.19;45.75;100040.64;1822473;76;21661;-74
2021/06/09 09:36:28;;;;;;;5.23;4.00;;;;;;;25.08;46.68;100048.66;1785770;78;21019;-74
2021/06/09 09:38:59;;;;;;;6.00;3.90;;;;;;;25.04;46.31;100040.97;1793352;78;21029;-74
2021/06/09 09:41:33;;;;;;;4.22;3.37;;;;;;;25.00;45.77;100039.55;1821160;76;21052;-73
2021/06/09 09:44:08;;;;;;;5.97;3.53;;;;;;;25.01;46.30;100036.27;1801444;78;21010;-74
2021/06/09 09:46:56;;;;;;;6.20;3.80;;;;;;;25.03;46.16;100030.62;1809950;78;21550;-74
2021/06/09 09:49:24;;;;;;;6.13;3.33;;;;;;;25.04;45.92;100025.38;1800463;78;21066;-74
2021/06/09 09:52:00;;;;;;;4.10;3.30;;;;;;;25.10;45.83;100024.47;1834384;76;21030;-74
2021/06/09 09:54:35;;;;;;;5.00;3.20;;;;;;;25.14;45.90;100021.27;1802882;78;21215;-75
2021/06/09 09:57:09;;;;;;;4.57;3.00;;;;;;;25.16;45.41;100022.25;1796351;78;21085;-75
2021/06/09 09:59:36;;;;;;;4.00;3.17;;;;;;;25.07;45.43;100017.59;1791887;78;21615;-75
2021/06/09 10:02:04;;;;;;;5.47;3.50;;;;;;;25.10;45.93;100025.05;1791193;79;21105;-74
2021/06/09 10:04:35;;;;;;;4.77;3.60;;;;;;;25.18;45.26;100026.78;1829618;76;21042;-76
2021/06/09 10:07:08;;;;;;;5.90;3.47;;;;;;;25.27;45.00;100016.34;1823063;76;21062;-75
2021/06/09 10:09:39;;;;;;;5.25;3.60;;;;;;;25.32;45.26;100003.73;1763792;78;21006;-75
2021/06/09 10:12:08;;;;;;;7.60;3.70;;;;;;;25.41;44.72;100013.04;1828278;76;21094;-75
2021/06/09 10:14:44;;;;;;;5.40;3.37;;;;;;;25.49;43.92;100011.95;1825832;77;21524;-71
2021/06/09 10:17:18;;;;;;;3.53;3.00;;;;;;;25.56;44.15;100005.80;1823285;76;21019;-75
2021/06/09 10:19:58;;;;;;;5.30;3.20;;;;;;;25.64;43.03;100003.37;1814794;77;21109;-74
2021/06/09 10:22:35;;;;;;;5.40;3.37;;;;;;;25.67;43.02;99997.16;1826907;76;20987;-74
2021/06/09 10:25:11;;;;;;;4.17;3.13;;;;;;;25.76;42.92;100001.73;1832451;77;21108;-74
2021/06/09 10:27:48;;;;;;;4.30;3.17;;;;;;;25.79;42.21;99989.27;1814199;77;21074;-74
2021/06/09 10:30:21;;;;;;;3.80;3.00;;;;;;;25.84;42.41;99989.75;1822989;76;21029;-74
2021/06/09 10:32:58;;;;;;;4.43;3.17;;;;;;;25.87;41.56;99983.54;1827012;78;21089;-74
2021/06/09 10:35:28;;;;;;;4.00;3.03;;;;;;;25.86;40.99;99973.73;1822845;76;21043;-75
2021/06/09 10:37:55;;;;;;;4.57;2.80;;;;;;;25.83;41.53;99981.35;1828429;77;21123;-75
2021/06/09 10:40:26;;;;;;;3.40;2.97;;;;;;;25.86;41.49;99966.89;1822624;76;21097;-74
2021/06/09 10:42:56;;;;;;;3.90;2.47;;;;;;;25.91;40.43;99973.41;1797614;78;21076;-74
2021/06/09 10:45:23;;;;;;;3.93;2.60;;;;;;;25.93;39.28;99967.58;1823762;77;21091;-74
2021/06/09 10:47:56;;;;;;;3.57;2.40;;;;;;;25.96;39.25;99970.35;1828119;77;21070;-74
2021/06/09 10:50:23;;;;;;;4.13;2.70;;;;;;;26.03;40.14;99977.84;1760433;79;21127;-74
2021/06/09 10:52:50;;;;;;;3.43;2.30;;;;;;;26.07;39.04;99980.03;1826014;76;21076;-74
2021/06/09 10:55:17;;;;;;;4.70;2.80;;;;;;;26.10;39.15;99978.50;1825273;77;21017;-74
2021/06/09 10:57:44;;;;;;;3.33;2.50;;;;;;;26.14;38.45;99977.36;1804807;78;21611;-74
2021/06/09 11:00:17;;;;;;;3.70;2.17;;;;;;;26.16;38.50;99967.42;1795969;78;21194;-74
2021/06/09 11:02:51;;;;;;;3.30;2.50;;;;;;;26.18;37.62;99960.38;1802210;78;21065;-73
2021/06/09 11:05:19;;;;;;;4.63;2.50;;;;;;;26.24;37.97;99962.79;1848569;77;21865;-74
2021/06/09 11:07:47;;;;;;;3.43;2.30;;;;;;;26.29;37.97;99961.87;1825192;76;21568;-74
2021/06/09 11:10:31;;;;;;;2.70;2.10;;;;;;;26.35;37.54;99958.18;1794007;78;21057;-74
2021/06/09 11:12:58;;;;;;;4.13;2.50;;;;;;;26.41;36.83;99946.50;1809617;78;20990;-74
2021/06/09 11:15:33;;;;;;;4.27;2.50;;;;;;;26.45;37.60;99949.27;1791105;78;21400;-74
2021/06/09 11:18:03;;;;;;;4.27;2.70;;;;;;;26.53;36.36;99945.46;1829761;76;21007;-74
2021/06/09 11:20:37;;;;;;;2.70;2.10;;;;;;;26.54;36.10;99941.55;1817133;77;21092;-74
2021/06/09 11:23:14;;;;;;;3.17;2.47;;;;;;;26.55;36.00;99930.00;1824708;76;21042;-74
2021/06/09 11:25:47;;;;;;;3.97;2.60;;;;;;;26.55;36.26;99930.00;1796680;78;21038;-74
2021/06/09 11:28:19;;;;;;;3.37;2.17;;;;;;;26.56;35.96;99928.86;1795125;78;21636;-74
2021/06/09 11:30:52;;;;;;;5.10;2.53;;;;;;;26.62;35.50;99928.67;1826250;77;21079;-73
2021/06/09 11:33:53;;;;;;;3.80;2.67;;;;;;;26.58;36.89;99925.14;1816544;76;21049;-73
2021/06/09 11:36:25;;;;;;;4.05;2.47;;;;;;;26.39;36.31;99925.58;1785017;78;21034;-72